Hovedside
METAR-TAF:

METAR-TAF

Lufthavner :

Nueva Hesperides internasjonale lufthavn

Salto, Uruguay

breddegrad: 31-23S, lengdegrad: 057-57W, høyde over havet: 34 m

Gjeldene værobservasjon

Denne rapporten ble laget for 1 time og 7 minutter siden, klokken 17:00 UTC
Vind 6 kt fra Øst-sørøst med vindkast opp mot 17 kt
Temperatur 18°C
Luftfuktighet 52%
Trykk 1029 hPa
Sikt 10 km eller mer
Få skyer i en høyde av 2000 ft

METAR: SUSO 151700Z 12006G17KT 9999 FEW020 18/08 Q1029

Tid: 15:07 (18:07 UTC)

Varsel

Denne rapporten ble laget for 37 minutter siden, klokken 17:30 UTC
Varsel gyldig fra 15. klokken 18 UTC til 16. klokken 18 UTC
Vind 10 kt fra Øst
Sikt 10 km eller mer
Spredte skyer i en høyde av 1500 ft
Sannsynlighet 40% :
Midlertidig
fra 16. klokken 03 UTC til 16. klokken 11 UTC
Sikt: 2000 m
Spredte skyer i en høyde av 500 ft
dis,

TAF: SUSO 151730Z 1518/1618 10010KT 9999 SCT015 TX18/1618Z TN05/1611Z PROB40 TEMPO 1603/1611 2000 BR SCT005

Værobservasjoner og værvarsel for over 4000 flyplasser (METAR- og TAF-rapporter).

Tilgjengelige stasjoner er representert av de røde og gule prikkene på kartet.

Hold musepekeren over prikken for å se navnet på stasjonen.

Klikk så for å se værobservasjoner og -varsler.

For å forandre kartet kan du klikke på den grønne knappen med svart kryss for å zoome inn, på den grønne knappen med strek for å zoome ut, eller på de grønne pilene for å se tilstøtende kart.


METAR-TAF: